createdAt,value
2023-12-11T00:00:46.616Z,126.90
2023-12-11T00:03:14.431Z,78.10
2023-12-11T00:05:42.827Z,124.38
2023-12-11T00:08:10.346Z,94.78
2023-12-11T00:10:38.767Z,99.37
2023-12-11T00:13:06.094Z,87.30
2023-12-11T00:15:33.471Z,124.72
2023-12-11T00:18:01.639Z,113.85
2023-12-11T00:20:29.145Z,91.37
2023-12-11T00:22:56.398Z,178.15
2023-12-11T00:25:23.961Z,119.70
2023-12-11T00:27:52.385Z,92.05
2023-12-11T00:30:19.660Z,65.22
2023-12-11T00:32:47.606Z,82.65
2023-12-11T00:35:15.957Z,54.85
2023-12-11T00:37:43.190Z,128.75
2023-12-11T00:40:10.935Z,59.53
2023-12-11T00:42:38.246Z,78.15
2023-12-11T00:45:06.859Z,66.05
2023-12-11T00:47:34.812Z,76.25
2023-12-11T00:50:05.412Z,106.75
2023-12-11T00:52:34.685Z,78.87
2023-12-11T00:55:02.101Z,66.40
2023-12-11T00:57:29.556Z,93.90
2023-12-11T00:59:57.274Z,54.10
2023-12-11T01:02:24.618Z,61.78
2023-12-11T01:04:51.975Z,45.15
2023-12-11T01:07:19.622Z,41.55
2023-12-11T01:09:46.909Z,92.50
2023-12-11T01:12:14.112Z,106.15
2023-12-11T01:14:41.710Z,95.30
2023-12-11T01:17:36.693Z,68.68
2023-12-11T01:19:56.847Z,77.60
2023-12-11T01:22:24.177Z,114.65
2023-12-11T01:24:51.472Z,79.55
2023-12-11T01:27:19.278Z,72.78
2023-12-11T01:29:46.613Z,128.95
2023-12-11T01:32:13.892Z,70.93
2023-12-11T01:34:41.501Z,106.55
2023-12-11T01:37:09.345Z,88.60
2023-12-11T01:39:36.613Z,63.20
2023-12-11T01:42:04.567Z,111.00
2023-12-11T01:44:31.921Z,99.85
2023-12-11T01:46:59.311Z,93.85
2023-12-11T01:49:26.999Z,81.05
2023-12-11T01:51:54.308Z,41.45
2023-12-11T01:54:22.786Z,42.35
2023-12-11T01:56:50.614Z,68.75
2023-12-11T01:59:19.090Z,60.35
2023-12-11T02:01:46.513Z,38.97
2023-12-11T02:04:17.394Z,53.78
2023-12-11T02:06:45.097Z,49.72
2023-12-11T02:09:12.625Z,33.92
2023-12-11T02:11:41.286Z,53.20
2023-12-11T02:14:09.337Z,36.92
2023-12-11T02:16:36.784Z,62.92
2023-12-11T02:19:04.504Z,48.33
2023-12-11T02:21:31.895Z,73.53
2023-12-11T02:24:08.777Z,65.25
2023-12-11T02:26:36.382Z,42.90
2023-12-11T02:29:03.925Z,54.88
2023-12-11T02:31:31.214Z,40.12
2023-12-11T02:33:58.950Z,82.12
2023-12-11T02:36:39.425Z,59.80
2023-12-11T02:39:07.022Z,95.03
2023-12-11T02:41:34.395Z,71.87
2023-12-11T02:44:02.778Z,72.15
2023-12-11T02:46:30.892Z,80.45
2023-12-11T02:48:58.285Z,64.55
2023-12-11T02:51:26.162Z,77.62
2023-12-11T02:53:54.250Z,41.53
2023-12-11T02:56:22.097Z,78.68
2023-12-11T02:58:49.359Z,77.55
2023-12-11T03:01:17.689Z,76.50
2023-12-11T03:03:45.630Z,70.22
2023-12-11T03:06:20.544Z,70.15
2023-12-11T03:08:48.180Z,64.03
2023-12-11T03:11:15.937Z,95.62
2023-12-11T03:13:43.268Z,67.20
2023-12-11T03:16:14.798Z,53.42
2023-12-11T03:18:42.833Z,66.15
2023-12-11T03:21:10.579Z,109.43
2023-12-11T03:23:39.778Z,81.50
2023-12-11T03:26:08.544Z,53.87
2023-12-11T03:28:36.161Z,49.08
2023-12-11T03:31:04.130Z,44.00
2023-12-11T03:33:31.580Z,100.25
2023-12-11T03:35:59.288Z,79.37
2023-12-11T03:38:26.529Z,46.40
2023-12-11T03:40:56.335Z,66.75
2023-12-11T03:43:24.580Z,76.18
2023-12-11T03:45:56.075Z,66.28
2023-12-11T03:48:23.926Z,58.33
2023-12-11T03:50:51.847Z,75.32
2023-12-11T03:53:19.077Z,64.10
2023-12-11T03:55:46.681Z,60.17
2023-12-11T03:58:14.958Z,61.50
2023-12-11T04:00:42.891Z,62.53
2023-12-11T04:03:12.602Z,70.32
2023-12-11T04:05:40.591Z,70.85
2023-12-11T04:08:08.068Z,64.65
2023-12-11T04:10:36.145Z,51.28
2023-12-11T04:13:04.366Z,63.40
2023-12-11T04:15:31.770Z,59.28
2023-12-11T04:18:01.064Z,69.95
2023-12-11T04:20:28.349Z,70.62
2023-12-11T04:22:55.623Z,48.75
2023-12-11T04:25:23.184Z,44.55
2023-12-11T04:27:50.417Z,60.20
2023-12-11T04:30:17.647Z,78.28
2023-12-11T04:32:45.900Z,66.68
2023-12-11T04:35:13.880Z,55.95
2023-12-11T04:37:43.242Z,54.13
2023-12-11T04:40:11.913Z,62.78
2023-12-11T04:42:52.590Z,54.50
2023-12-11T04:45:20.159Z,52.20
2023-12-11T04:47:50.425Z,54.13
2023-12-11T04:50:18.025Z,54.15
2023-12-11T04:52:48.956Z,57.85
2023-12-11T04:55:17.165Z,52.10
2023-12-11T04:57:44.488Z,49.70
2023-12-11T05:00:16.451Z,61.00
2023-12-11T05:02:44.878Z,52.62
2023-12-11T05:05:12.668Z,48.10
2023-12-11T05:07:40.469Z,52.25
2023-12-11T05:10:08.581Z,55.08
2023-12-11T05:12:36.235Z,54.13
2023-12-11T05:15:05.050Z,43.33
2023-12-11T05:17:46.966Z,53.17
2023-12-11T05:20:17.597Z,53.83
2023-12-11T05:22:44.927Z,43.75
2023-12-11T05:25:13.225Z,53.17
2023-12-11T05:27:40.919Z,64.72
2023-12-11T05:30:09.195Z,45.90
2023-12-11T05:32:37.029Z,48.58
2023-12-11T05:35:05.156Z,56.67
2023-12-11T05:37:36.767Z,45.45
2023-12-11T05:40:21.458Z,52.47
2023-12-11T05:42:52.710Z,52.22
2023-12-11T05:45:20.082Z,49.60
2023-12-11T05:47:47.791Z,47.62
2023-12-11T05:50:16.225Z,58.20
2023-12-11T05:52:45.488Z,46.05
2023-12-11T05:55:13.765Z,49.50
2023-12-11T05:57:44.986Z,58.38
2023-12-11T06:02:42.392Z,42.67
2023-12-11T06:05:10.798Z,46.08
2023-12-11T06:07:38.382Z,40.72
2023-12-11T06:10:07.136Z,49.08
2023-12-11T06:12:35.334Z,50.67
2023-12-11T06:15:02.977Z,50.05
2023-12-11T06:17:30.939Z,42.83
2023-12-11T06:20:01.055Z,42.40
2023-12-11T06:22:28.753Z,50.47
2023-12-11T06:25:08.366Z,48.40
2023-12-11T06:27:35.768Z,41.67
2023-12-11T06:30:04.098Z,48.80
2023-12-11T06:32:31.475Z,53.45
2023-12-11T06:34:59.298Z,46.58
2023-12-11T06:37:27.168Z,48.17
2023-12-11T06:39:55.932Z,51.25
2023-12-11T06:42:23.743Z,51.42
2023-12-11T06:44:51.576Z,51.13
2023-12-11T06:47:19.384Z,63.38
2023-12-11T06:49:48.304Z,48.55
2023-12-11T06:52:17.210Z,49.45
2023-12-11T06:54:44.623Z,52.35
2023-12-11T06:57:12.744Z,43.97
2023-12-11T06:59:40.379Z,52.80
2023-12-11T07:02:08.436Z,41.95
2023-12-11T07:04:35.986Z,52.88
2023-12-11T07:07:04.914Z,40.33
2023-12-11T07:09:33.727Z,46.47
2023-12-11T07:12:05.483Z,40.78
2023-12-11T07:14:33.184Z,42.25
2023-12-11T07:17:00.769Z,38.72
2023-12-11T07:19:28.222Z,43.17
2023-12-11T07:21:58.126Z,40.33
2023-12-11T07:24:25.484Z,36.58
2023-12-11T07:26:53.246Z,41.42
2023-12-11T07:29:20.824Z,37.92
2023-12-11T07:31:49.077Z,35.00
2023-12-11T07:34:16.481Z,35.90
2023-12-11T07:36:47.548Z,45.92
2023-12-11T07:39:15.666Z,34.42
2023-12-11T07:41:43.925Z,37.60
2023-12-11T07:44:11.519Z,31.48
2023-12-11T07:46:42.272Z,31.83
2023-12-11T07:49:13.905Z,38.35
2023-12-11T07:51:41.660Z,33.53
2023-12-11T07:54:10.903Z,35.22
2023-12-11T07:56:38.490Z,41.58
2023-12-11T07:59:07.901Z,32.95
2023-12-11T08:01:36.681Z,37.35
2023-12-11T08:04:05.096Z,44.65
2023-12-11T08:06:32.698Z,45.80
2023-12-11T08:09:04.322Z,44.92
2023-12-11T08:11:32.761Z,37.08
2023-12-11T08:14:00.213Z,37.95
2023-12-11T08:16:28.662Z,41.80
2023-12-11T08:18:56.541Z,39.95
2023-12-11T08:21:24.371Z,43.42
2023-12-11T08:24:08.910Z,36.88
2023-12-11T08:26:38.990Z,30.83
2023-12-11T08:29:07.202Z,43.33
2023-12-11T08:31:37.281Z,34.88
2023-12-11T08:34:05.251Z,33.43
2023-12-11T08:36:33.214Z,35.85
2023-12-11T08:39:01.245Z,35.70
2023-12-11T08:41:28.835Z,37.80
2023-12-11T08:43:57.225Z,39.20
2023-12-11T08:46:25.760Z,38.03
2023-12-11T08:48:53.618Z,34.65
2023-12-11T08:51:21.166Z,42.75
2023-12-11T08:53:49.572Z,33.67
2023-12-11T08:56:28.180Z,36.13
2023-12-11T08:59:04.874Z,35.33
2023-12-11T09:01:36.025Z,34.70
2023-12-11T09:04:04.682Z,32.80
2023-12-11T09:06:32.510Z,31.67
2023-12-11T09:09:00.278Z,32.67
2023-12-11T09:11:27.625Z,36.00
2023-12-11T09:13:55.891Z,33.55
2023-12-11T09:16:25.188Z,34.50
2023-12-11T09:22:36.154Z,33.90
2023-12-11T09:32:11.405Z,34.70
2023-12-11T09:34:43.982Z,30.37
2023-12-11T09:37:13.776Z,29.67
2023-12-11T09:39:41.960Z,33.25
2023-12-11T09:49:05.866Z,30.05
2023-12-11T09:54:52.179Z,31.50
2023-12-11T09:57:20.687Z,33.67
2023-12-11T09:59:48.756Z,29.65
2023-12-11T10:05:47.995Z,33.47
2023-12-11T10:08:19.035Z,33.90
2023-12-11T10:10:47.615Z,36.95
2023-12-11T10:13:25.778Z,34.03
2023-12-11T10:15:54.137Z,31.85
2023-12-11T10:18:27.531Z,30.37
2023-12-11T10:20:58.694Z,28.67
2023-12-11T10:23:27.671Z,33.20
2023-12-11T10:26:09.679Z,34.72
2023-12-11T10:28:37.759Z,30.52
2023-12-11T10:32:02.688Z,34.88
2023-12-11T10:38:22.101Z,32.92
2023-12-11T10:41:01.993Z,39.25
2023-12-11T10:44:02.018Z,36.70
2023-12-11T10:50:37.149Z,41.97
2023-12-11T10:53:20.601Z,34.97
2023-12-11T10:55:52.904Z,34.53
2023-12-11T10:58:39.743Z,39.10
2023-12-11T11:01:13.702Z,31.65
2023-12-11T11:03:42.398Z,33.28
2023-12-11T11:06:13.762Z,36.33
2023-12-11T11:08:56.477Z,34.17
2023-12-11T11:11:30.580Z,36.42
2023-12-11T11:14:25.335Z,32.28
2023-12-11T11:16:54.814Z,30.08
2023-12-11T11:19:23.115Z,35.28
2023-12-11T11:22:13.474Z,31.67
2023-12-11T11:24:48.034Z,39.25
2023-12-11T11:27:44.999Z,40.17
2023-12-11T11:30:42.786Z,30.80
2023-12-11T11:33:11.869Z,42.13
2023-12-11T11:35:46.834Z,35.78
2023-12-11T11:38:22.323Z,33.67
2023-12-11T11:40:52.915Z,38.15
2023-12-11T11:46:48.749Z,43.97
2023-12-11T11:52:43.486Z,34.53
2023-12-11T11:55:22.338Z,32.88
2023-12-11T11:57:50.119Z,36.00
2023-12-11T12:00:25.309Z,32.45
2023-12-11T12:03:07.951Z,31.05
2023-12-11T12:05:39.991Z,32.90
2023-12-11T12:08:09.358Z,30.05
2023-12-11T12:10:37.322Z,33.95
2023-12-11T12:13:06.623Z,37.70
2023-12-11T12:15:46.344Z,34.40
2023-12-11T12:18:17.703Z,31.30
2023-12-11T12:23:31.741Z,37.22
2023-12-11T12:26:00.807Z,39.08
2023-12-11T12:28:31.022Z,34.35
2023-12-11T12:30:59.043Z,31.00
2023-12-11T12:33:28.571Z,28.65
2023-12-11T12:35:56.647Z,38.75
2023-12-11T12:38:24.945Z,32.45
2023-12-11T12:40:55.148Z,31.15
2023-12-11T12:43:25.613Z,32.40
2023-12-11T12:46:00.878Z,31.42
2023-12-11T12:48:31.743Z,30.30
2023-12-11T12:51:06.648Z,32.38
2023-12-11T12:53:34.171Z,34.85
2023-12-11T12:56:02.204Z,33.50
2023-12-11T12:58:30.564Z,47.38
2023-12-11T13:01:01.102Z,31.08
2023-12-11T13:03:29.091Z,29.37
2023-12-11T13:05:59.483Z,41.70
2023-12-11T13:08:30.299Z,31.33
2023-12-11T13:10:58.397Z,34.25
2023-12-11T13:13:28.248Z,39.83
2023-12-11T13:15:57.941Z,38.97
2023-12-11T13:18:32.156Z,39.15
2023-12-11T13:21:00.554Z,40.38
2023-12-11T13:23:29.891Z,32.83
2023-12-11T13:25:58.327Z,37.33
2023-12-11T13:28:25.776Z,39.90
2023-12-11T13:30:54.383Z,37.53
2023-12-11T13:36:31.496Z,32.80
2023-12-11T13:39:00.203Z,43.10
2023-12-11T13:45:13.059Z,35.58
2023-12-11T13:47:41.053Z,34.00
2023-12-11T13:50:10.887Z,40.85
2023-12-11T13:52:40.885Z,43.53
2023-12-11T13:55:08.855Z,41.00
2023-12-11T13:57:37.114Z,47.47
2023-12-11T14:00:05.694Z,48.05
2023-12-11T14:02:59.437Z,48.22
2023-12-11T14:05:21.832Z,44.35
2023-12-11T14:07:50.624Z,46.28
2023-12-11T14:10:18.449Z,46.00
2023-12-11T14:12:46.553Z,45.33
2023-12-11T14:18:35.430Z,43.67
2023-12-11T14:21:04.947Z,48.03
2023-12-11T14:23:33.909Z,40.50
2023-12-11T14:26:01.816Z,42.08
2023-12-11T14:28:32.271Z,42.60
2023-12-11T14:31:00.668Z,43.30
2023-12-11T14:33:32.423Z,46.28
2023-12-11T14:36:14.931Z,50.90
2023-12-11T14:38:59.910Z,48.30
2023-12-11T14:45:24.266Z,46.80
2023-12-11T14:51:40.763Z,51.15
2023-12-11T14:54:09.376Z,55.05
2023-12-11T14:56:40.381Z,52.80
2023-12-11T14:59:08.547Z,52.65
2023-12-11T15:01:38.204Z,41.33
2023-12-11T15:04:08.402Z,42.75
2023-12-11T15:06:40.784Z,42.83
2023-12-11T15:09:08.697Z,59.70
2023-12-11T15:11:36.562Z,52.38
2023-12-11T15:14:14.221Z,57.85
2023-12-11T15:16:46.087Z,54.30
2023-12-11T15:19:14.610Z,54.78
2023-12-11T15:25:13.505Z,56.00
2023-12-11T15:27:45.717Z,61.67
2023-12-11T15:30:20.285Z,64.93
2023-12-11T15:32:55.395Z,58.75
2023-12-11T15:35:25.199Z,66.53
2023-12-11T15:37:54.191Z,72.97
2023-12-11T15:40:28.521Z,73.65
2023-12-11T15:43:02.478Z,78.30
2023-12-11T15:45:29.926Z,72.47
2023-12-11T15:48:03.785Z,75.65
2023-12-11T15:50:34.322Z,69.78
2023-12-11T15:53:02.123Z,65.00
2023-12-11T15:55:29.482Z,75.25
2023-12-11T15:57:57.924Z,74.18
2023-12-11T16:00:26.005Z,79.97
2023-12-11T16:02:56.304Z,81.60
2023-12-11T16:05:24.027Z,82.25
2023-12-11T16:07:51.378Z,68.97
2023-12-11T16:10:19.170Z,71.28
2023-12-11T16:16:32.792Z,72.28
2023-12-11T16:19:00.974Z,84.57
2023-12-11T16:21:28.457Z,86.82
2023-12-11T16:23:58.640Z,73.10
2023-12-11T16:26:28.601Z,66.00
2023-12-11T16:28:58.179Z,78.28
2023-12-11T16:31:26.023Z,67.53
2023-12-11T16:33:54.207Z,60.83
2023-12-11T16:36:21.682Z,65.47
2023-12-11T16:42:21.175Z,76.28
2023-12-11T16:44:49.318Z,68.68
2023-12-11T16:47:18.716Z,77.12
2023-12-11T16:49:55.849Z,66.22
2023-12-11T16:52:30.808Z,71.15
2023-12-11T16:54:58.407Z,63.83
2023-12-11T16:57:29.427Z,69.82
2023-12-11T16:59:59.240Z,68.35
2023-12-11T17:02:26.605Z,68.95
2023-12-11T17:04:54.567Z,74.53
2023-12-11T17:07:22.321Z,69.20
2023-12-11T17:09:51.877Z,62.13
2023-12-11T17:12:19.787Z,75.93
2023-12-11T17:14:47.384Z,76.57
2023-12-11T17:17:21.513Z,69.97
2023-12-11T17:23:05.622Z,61.17
2023-12-11T17:25:36.709Z,65.00
2023-12-11T17:28:16.034Z,66.30
2023-12-11T17:30:53.887Z,58.42
2023-12-11T17:33:22.083Z,73.55
2023-12-11T17:35:58.085Z,68.82
2023-12-11T17:38:27.249Z,68.60
2023-12-11T17:40:56.808Z,68.07
2023-12-11T17:43:29.056Z,76.78
2023-12-11T17:45:57.121Z,77.18
2023-12-11T17:48:31.392Z,89.55
2023-12-11T17:51:00.352Z,91.05
2023-12-11T17:53:29.249Z,80.87
2023-12-11T17:55:56.972Z,84.68
2023-12-11T17:58:25.271Z,80.78
2023-12-11T18:00:53.129Z,84.35
2023-12-11T18:03:22.186Z,75.93
2023-12-11T18:05:50.597Z,88.85
2023-12-11T18:08:18.387Z,89.80
2023-12-11T18:10:48.187Z,110.22
2023-12-11T18:13:16.042Z,95.87
2023-12-11T18:15:43.956Z,95.22
2023-12-11T18:18:13.782Z,113.87
2023-12-11T18:20:41.550Z,117.57
2023-12-11T18:23:10.044Z,90.50
2023-12-11T18:25:40.127Z,74.93
2023-12-11T18:28:08.290Z,67.93
2023-12-11T18:30:36.285Z,65.95
2023-12-11T18:33:06.176Z,60.80
2023-12-11T18:35:34.637Z,63.60
2023-12-11T18:38:02.665Z,71.10
2023-12-11T18:40:31.461Z,65.57
2023-12-11T18:43:01.364Z,59.77
2023-12-11T18:45:29.133Z,63.53
2023-12-11T18:48:00.316Z,66.53
2023-12-11T18:52:58.146Z,65.37
2023-12-11T18:55:30.977Z,66.85
2023-12-11T18:57:59.804Z,72.93
2023-12-11T19:00:27.956Z,77.93
2023-12-11T19:02:57.963Z,59.50
2023-12-11T19:05:26.274Z,77.30
2023-12-11T19:07:56.404Z,81.57
2023-12-11T19:10:26.219Z,84.55
2023-12-11T19:13:13.987Z,79.72
2023-12-11T19:15:44.976Z,80.40
2023-12-11T19:18:14.202Z,98.70
2023-12-11T19:20:42.600Z,97.75
2023-12-11T19:23:23.363Z,89.95
2023-12-11T19:28:55.225Z,81.43
2023-12-11T19:31:24.823Z,80.90
2023-12-11T19:33:53.205Z,80.18
2023-12-11T19:36:21.346Z,81.25
2023-12-11T19:38:54.547Z,87.03
2023-12-11T19:41:22.995Z,92.93
2023-12-11T19:44:03.496Z,79.18
2023-12-11T19:46:52.895Z,87.43
2023-12-11T19:49:21.011Z,85.10
2023-12-11T19:51:49.103Z,91.82
2023-12-11T19:54:23.238Z,82.60
2023-12-11T19:56:56.029Z,85.30
2023-12-11T20:02:46.769Z,82.70
2023-12-11T20:05:14.899Z,85.77
2023-12-11T20:07:42.820Z,79.68
2023-12-11T20:10:11.971Z,76.53
2023-12-11T20:12:40.188Z,69.93
2023-12-11T20:15:12.178Z,78.50
2023-12-11T20:17:40.668Z,69.22
2023-12-11T20:20:09.303Z,69.78
2023-12-11T20:22:37.232Z,61.83
2023-12-11T20:25:06.879Z,75.97
2023-12-11T20:27:44.589Z,68.32
2023-12-11T20:30:14.745Z,82.40
2023-12-11T20:32:50.941Z,86.57
2023-12-11T20:45:53.271Z,83.12
2023-12-11T20:48:22.609Z,81.43
2023-12-11T20:53:53.628Z,89.40
2023-12-11T20:59:53.609Z,84.35
2023-12-11T21:02:21.818Z,85.60
2023-12-11T21:04:50.433Z,93.55
2023-12-11T21:07:18.275Z,86.07
2023-12-11T21:09:45.988Z,81.90
2023-12-11T21:12:13.717Z,75.18
2023-12-11T21:14:41.492Z,86.80
2023-12-11T21:17:10.957Z,85.53
2023-12-11T21:19:38.805Z,87.50
2023-12-11T21:22:06.672Z,79.10
2023-12-11T21:24:34.117Z,79.70
2023-12-11T21:27:03.996Z,85.30
2023-12-11T21:29:31.934Z,91.78
2023-12-11T21:32:01.294Z,76.68
2023-12-11T21:34:30.007Z,97.05
2023-12-11T21:36:57.892Z,86.05
2023-12-11T21:39:25.411Z,81.32
2023-12-11T21:41:52.653Z,95.32
2023-12-11T21:44:22.198Z,80.70
2023-12-11T21:46:52.430Z,93.07
2023-12-11T21:49:22.241Z,89.22
2023-12-11T21:51:51.001Z,78.03
2023-12-11T21:54:22.819Z,91.63
2023-12-11T21:56:50.972Z,89.07
2023-12-11T21:59:18.337Z,88.32
2023-12-11T22:01:47.475Z,67.20
2023-12-11T22:04:15.706Z,83.03
2023-12-11T22:06:43.161Z,72.28
2023-12-11T22:09:11.102Z,78.12
2023-12-11T22:11:38.639Z,79.35
2023-12-11T22:14:06.797Z,81.43
2023-12-11T22:16:36.963Z,89.15
2023-12-11T22:19:06.584Z,76.85
2023-12-11T22:21:33.880Z,76.55
2023-12-11T22:24:06.346Z,65.12
2023-12-11T22:26:40.666Z,79.90
2023-12-11T22:29:08.490Z,75.22
2023-12-11T22:31:41.612Z,78.15
2023-12-11T22:34:09.619Z,76.62
2023-12-11T22:36:38.159Z,77.43
2023-12-11T22:39:05.917Z,71.22
2023-12-11T22:41:36.615Z,77.00
2023-12-11T22:44:07.282Z,70.10
2023-12-11T22:46:35.059Z,80.40
2023-12-11T22:49:02.705Z,82.55
2023-12-11T22:51:31.444Z,85.40
2023-12-11T22:53:59.950Z,77.03
2023-12-11T22:56:30.501Z,95.22
2023-12-11T22:58:58.241Z,93.65
2023-12-11T23:01:25.575Z,92.15
2023-12-11T23:03:53.440Z,102.57
2023-12-11T23:06:21.080Z,105.72
2023-12-11T23:08:48.813Z,114.80
2023-12-11T23:11:16.644Z,113.43
2023-12-11T23:13:44.198Z,134.77
2023-12-11T23:16:12.308Z,110.47
2023-12-11T23:18:39.740Z,125.28
2023-12-11T23:21:16.767Z,119.68
2023-12-11T23:23:44.653Z,103.62
2023-12-11T23:26:12.486Z,101.82
2023-12-11T23:28:40.547Z,104.47
2023-12-11T23:31:10.367Z,88.78
2023-12-11T23:33:39.627Z,93.22
2023-12-11T23:36:07.623Z,104.20
2023-12-11T23:38:35.323Z,101.78
2023-12-11T23:41:02.835Z,97.20
2023-12-11T23:43:30.154Z,86.63
2023-12-11T23:45:57.440Z,83.93
2023-12-11T23:48:25.911Z,81.00
2023-12-11T23:50:53.393Z,96.43
2023-12-11T23:53:21.164Z,81.75
2023-12-11T23:55:48.661Z,82.03
2023-12-11T23:58:16.077Z,69.55
